<?xml version="1.0" encoding="UTF-8" standalone="no" ?>
<gpx xmlns="http://www.topografix.com/GPX/1/1" xmlns:xsi="http://www.w3.org/2001/XMLSchema-instance" xsi:schemaLocation="http://www.topografix.com/GPX/1/1 http://www.topografix.com/GPX/1/1/gpx.xsd" version="1.1" creator="VisuGPX - https://www.visugpx.com">
  <metadata>
    <name>Réunion_Boucle petite ravine_Barrage</name>
    <desc><![CDATA[Le tour par le barrage du bras de la plaine en partant du chemin de la petite ravine à bras de pontho.]]></desc>
  </metadata>
  <wpt lat="-21.23625" lon="55.50012">
    <ele>758.36010742188</ele>
    <name><![CDATA[001]]></name>
    <desc><![CDATA[14-JAN-13 7:39:01]]></desc>
    <cmt><![CDATA[14-JAN-13 7:39:01]]></cmt>
  </wpt>
  <wpt lat="-21.2277" lon="55.49903">
    <ele>380.08410644531</ele>
    <name><![CDATA[002]]></name>
    <desc><![CDATA[14-JAN-13 8:15:57]]></desc>
    <cmt><![CDATA[14-JAN-13 8:15:57]]></cmt>
  </wpt>
  <wpt lat="-21.22474" lon="55.50353">
    <ele>410.60559082031</ele>
    <name><![CDATA[003]]></name>
    <desc><![CDATA[14-JAN-13 8:24:55]]></desc>
    <cmt><![CDATA[14-JAN-13 8:24:55]]></cmt>
  </wpt>
  <wpt lat="-21.21708" lon="55.50625">
    <ele>442.32897949219</ele>
    <name><![CDATA[004]]></name>
    <desc><![CDATA[14-JAN-13 8:40:18]]></desc>
    <cmt><![CDATA[14-JAN-13 8:40:18]]></cmt>
  </wpt>
  <wpt lat="-21.22966" lon="55.49736">
    <ele>376.23876953125</ele>
    <name><![CDATA[005]]></name>
    <desc><![CDATA[14-JAN-13 9:16:26]]></desc>
    <cmt><![CDATA[14-JAN-13 9:16:26]]></cmt>
  </wpt>
  <wpt lat="-21.22969" lon="55.49734">
    <ele>376.95983886719</ele>
    <name><![CDATA[006]]></name>
    <desc><![CDATA[14-JAN-13 9:16:28]]></desc>
    <cmt><![CDATA[14-JAN-13 9:16:28]]></cmt>
  </wpt>
  <wpt lat="-21.22999" lon="55.49695">
    <ele>377.92102050781</ele>
    <name><![CDATA[007]]></name>
    <desc><![CDATA[14-JAN-13 9:18:37]]></desc>
    <cmt><![CDATA[14-JAN-13 9:18:37]]></cmt>
  </wpt>
  <wpt lat="-21.23092" lon="55.49675">
    <ele>460.83422851562</ele>
    <name><![CDATA[008]]></name>
    <desc><![CDATA[14-JAN-13 9:24:03]]></desc>
    <cmt><![CDATA[14-JAN-13 9:24:03]]></cmt>
  </wpt>
  <wpt lat="-21.23211" lon="55.49807">
    <ele>570.6640625</ele>
    <name><![CDATA[009]]></name>
    <desc><![CDATA[14-JAN-13 9:31:49]]></desc>
    <cmt><![CDATA[14-JAN-13 9:31:49]]></cmt>
  </wpt>
  <trk>
    <name><![CDATA[ACTIVE LOG 002]]></name>
    <trkseg>
      <trkpt lat="-21.22168" lon="55.50259">
        <ele>428.40466308594</ele>
        <time>2013-01-14T04:55:38Z</time>
      </trkpt>
      <trkpt lat="-21.22168" lon="55.50259">
        <ele>429.36596679688</ele>
        <time>2013-01-14T04:55:40Z</time>
      </trkpt>
      <trkpt lat="-21.22168" lon="55.50259">
        <ele>428.40466308594</ele>
        <time>2013-01-14T04:55:45Z</time>
      </trkpt>
      <trkpt lat="-21.22165" lon="55.50293">
        <ele>428.40466308594</ele>
        <time>2013-01-14T04:55:57Z</time>
      </trkpt>
      <trkpt lat="-21.2217" lon="55.50294">
        <ele>427.92395019531</ele>
        <time>2013-01-14T04:56:05Z</time>
      </trkpt>
      <trkpt lat="-21.22166" lon="55.50304">
        <ele>427.92395019531</ele>
        <time>2013-01-14T04:56:14Z</time>
      </trkpt>
      <trkpt lat="-21.22165" lon="55.5031">
        <ele>427.92395019531</ele>
        <time>2013-01-14T04:56:17Z</time>
      </trkpt>
      <trkpt lat="-21.22167" lon="55.50317">
        <ele>427.443359375</ele>
        <time>2013-01-14T04:56:22Z</time>
      </trkpt>
      <trkpt lat="-21.22168" lon="55.50324">
        <ele>427.92395019531</ele>
        <time>2013-01-14T04:56:26Z</time>
      </trkpt>
      <trkpt lat="-21.22169" lon="55.50329">
        <ele>428.40466308594</ele>
        <time>2013-01-14T04:56:29Z</time>
      </trkpt>
      <trkpt lat="-21.2217" lon="55.50334">
        <ele>427.92395019531</ele>
        <time>2013-01-14T04:56:32Z</time>
      </trkpt>
      <trkpt lat="-21.22172" lon="55.50339">
        <ele>427.92395019531</ele>
        <time>2013-01-14T04:56:36Z</time>
      </trkpt>
      <trkpt lat="-21.22171" lon="55.50355">
        <ele>428.40466308594</ele>
        <time>2013-01-14T04:56:44Z</time>
      </trkpt>
      <trkpt lat="-21.22175" lon="55.50364">
        <ele>428.40466308594</ele>
        <time>2013-01-14T04:56:55Z</time>
      </trkpt>
      <trkpt lat="-21.22177" lon="55.50369">
        <ele>428.40466308594</ele>
        <time>2013-01-14T04:57:06Z</time>
      </trkpt>
      <trkpt lat="-21.22167" lon="55.50373">
        <ele>426.48205566406</ele>
        <time>2013-01-14T04:57:25Z</time>
      </trkpt>
      <trkpt lat="-21.22167" lon="55.50373">
        <ele>431.28857421875</ele>
        <time>2013-01-14T04:57:26Z</time>
      </trkpt>
      <trkpt lat="-21.22167" lon="55.50372">
        <ele>431.28857421875</ele>
        <time>2013-01-14T04:57:27Z</time>
      </trkpt>
      <trkpt lat="-21.22168" lon="55.50376">
        <ele>428.88537597656</ele>
        <time>2013-01-14T04:57:29Z</time>
      </trkpt>
      <trkpt lat="-21.22168" lon="55.50379">
        <ele>427.443359375</ele>
        <time>2013-01-14T04:57:36Z</time>
      </trkpt>
      <trkpt lat="-21.22169" lon="55.50382">
        <ele>429.36596679688</ele>
        <time>2013-01-14T04:57:50Z</time>
      </trkpt>
      <trkpt lat="-21.22169" lon="55.50399">
        <ele>428.40466308594</ele>
        <time>2013-01-14T04:58:29Z</time>
      </trkpt>
      <trkpt lat="-21.22168" lon="55.504">
        <ele>428.40466308594</ele>
        <time>2013-01-14T04:58:31Z</time>
      </trkpt>
      <trkpt lat="-21.2217" lon="55.50398">
        <ele>430.32727050781</ele>
        <time>2013-01-14T04:58:34Z</time>
      </trkpt>
      <trkpt lat="-21.22169" lon="55.504">
        <ele>428.88537597656</ele>
        <time>2013-01-14T04:58:37Z</time>
      </trkpt>
      <trkpt lat="-21.2217" lon="55.50409">
        <ele>426.96276855469</ele>
        <time>2013-01-14T04:58:43Z</time>
      </trkpt>
      <trkpt lat="-21.22169" lon="55.5041">
        <ele>428.88537597656</ele>
        <time>2013-01-14T04:58:45Z</time>
      </trkpt>
      <trkpt lat="-21.22155" lon="55.50437">
        <ele>428.40466308594</ele>
        <time>2013-01-14T04:58:51Z</time>
      </trkpt>
      <trkpt lat="-21.22154" lon="55.50443">
        <ele>427.443359375</ele>
        <time>2013-01-14T04:58:56Z</time>
      </trkpt>
      <trkpt lat="-21.22158" lon="55.50446">
        <ele>427.92395019531</ele>
        <time>2013-01-14T04:58:59Z</time>
      </trkpt>
      <trkpt lat="-21.22164" lon="55.50456">
        <ele>427.443359375</ele>
        <time>2013-01-14T04:59:05Z</time>
      </trkpt>
      <trkpt lat="-21.22164" lon="55.50469">
        <ele>426.48205566406</ele>
        <time>2013-01-14T04:59:14Z</time>
      </trkpt>
      <trkpt lat="-21.22169" lon="55.50481">
        <ele>426.48205566406</ele>
        <time>2013-01-14T04:59:25Z</time>
      </trkpt>
      <trkpt lat="-21.22169" lon="55.50482">
        <ele>426.00134277344</ele>
        <time>2013-01-14T04:59:27Z</time>
      </trkpt>
      <trkpt lat="-21.22176" lon="55.50487">
        <ele>425.52075195312</ele>
        <time>2013-01-14T04:59:33Z</time>
      </trkpt>
      <trkpt lat="-21.22185" lon="55.50491">
        <ele>425.04016113281</ele>
        <time>2013-01-14T04:59:45Z</time>
      </trkpt>
      <trkpt lat="-21.22209" lon="55.50493">
        <ele>423.11743164062</ele>
        <time>2013-01-14T04:59:57Z</time>
      </trkpt>
      <trkpt lat="-21.22212" lon="55.50495">
        <ele>422.63671875</ele>
        <time>2013-01-14T04:59:59Z</time>
      </trkpt>
      <trkpt lat="-21.22223" lon="55.50491">
        <ele>421.67541503906</ele>
        <time>2013-01-14T05:00:03Z</time>
      </trkpt>
      <trkpt lat="-21.22227" lon="55.50488">
        <ele>421.67541503906</ele>
        <time>2013-01-14T05:00:07Z</time>
      </trkpt>
      <trkpt lat="-21.22234" lon="55.50482">
        <ele>421.19482421875</ele>
        <time>2013-01-14T05:00:12Z</time>
      </trkpt>
      <trkpt lat="-21.22238" lon="55.50479">
        <ele>421.19482421875</ele>
        <time>2013-01-14T05:00:16Z</time>
      </trkpt>
      <trkpt lat="-21.2224" lon="55.50477">
        <ele>421.19482421875</ele>
        <time>2013-01-14T05:00:19Z</time>
      </trkpt>
      <trkpt lat="-21.22242" lon="55.50476">
        <ele>420.71411132812</ele>
        <time>2013-01-14T05:00:28Z</time>
      </trkpt>
      <trkpt lat="-21.22251" lon="55.50469">
        <ele>419.75280761719</ele>
        <time>2013-01-14T05:00:44Z</time>
      </trkpt>
      <trkpt lat="-21.22262" lon="55.50461">
        <ele>420.71411132812</ele>
        <time>2013-01-14T05:00:56Z</time>
      </trkpt>
      <trkpt lat="-21.22282" lon="55.50447">
        <ele>420.71411132812</ele>
        <time>2013-01-14T05:01:09Z</time>
      </trkpt>
      <trkpt lat="-21.22286" lon="55.50443">
        <ele>420.2333984375</ele>
        <time>2013-01-14T05:01:16Z</time>
      </trkpt>
      <trkpt lat="-21.22293" lon="55.50439">
        <ele>419.27221679688</ele>
        <time>2013-01-14T05:01:18Z</time>
      </trkpt>
      <trkpt lat="-21.22305" lon="55.50431">
        <ele>419.27221679688</ele>
        <time>2013-01-14T05:01:27Z</time>
      </trkpt>
      <trkpt lat="-21.22309" lon="55.50428">
        <ele>418.79150390625</ele>
        <time>2013-01-14T05:01:32Z</time>
      </trkpt>
      <trkpt lat="-21.22316" lon="55.50425">
        <ele>419.27221679688</ele>
        <time>2013-01-14T05:01:37Z</time>
      </trkpt>
      <trkpt lat="-21.2232" lon="55.50422">
        <ele>417.83020019531</ele>
        <time>2013-01-14T05:01:42Z</time>
      </trkpt>
      <trkpt lat="-21.22328" lon="55.50418">
        <ele>417.83020019531</ele>
        <time>2013-01-14T05:01:49Z</time>
      </trkpt>
      <trkpt lat="-21.22336" lon="55.50413">
        <ele>418.31079101562</ele>
        <time>2013-01-14T05:01:54Z</time>
      </trkpt>
      <trkpt lat="-21.22333" lon="55.50407">
        <ele>417.83020019531</ele>
        <time>2013-01-14T05:01:56Z</time>
      </trkpt>
      <trkpt lat="-21.22343" lon="55.50401">
        <ele>417.83020019531</ele>
        <time>2013-01-14T05:02:05Z</time>
      </trkpt>
      <trkpt lat="-21.22345" lon="55.50398">
        <ele>418.31079101562</ele>
        <time>2013-01-14T05:02:07Z</time>
      </trkpt>
      <trkpt lat="-21.2235" lon="55.50393">
        <ele>418.79150390625</ele>
        <time>2013-01-14T05:02:13Z</time>
      </trkpt>
      <trkpt lat="-21.22364" lon="55.50388">
        <ele>418.79150390625</ele>
        <time>2013-01-14T05:02:25Z</time>
      </trkpt>
      <trkpt lat="-21.22366" lon="55.50388">
        <ele>418.79150390625</ele>
        <time>2013-01-14T05:02:26Z</time>
      </trkpt>
      <trkpt lat="-21.22369" lon="55.50389">
        <ele>418.31079101562</ele>
        <time>2013-01-14T05:02:29Z</time>
      </trkpt>
      <trkpt lat="-21.22378" lon="55.5039">
        <ele>418.31079101562</ele>
        <time>2013-01-14T05:02:34Z</time>
      </trkpt>
      <trkpt lat="-21.22383" lon="55.50392">
        <ele>417.83020019531</ele>
        <time>2013-01-14T05:02:38Z</time>
      </trkpt>
      <trkpt lat="-21.22397" lon="55.50388">
        <ele>417.83020019531</ele>
        <time>2013-01-14T05:02:45Z</time>
      </trkpt>
      <trkpt lat="-21.22407" lon="55.5039">
        <ele>418.31079101562</ele>
        <time>2013-01-14T05:02:55Z</time>
      </trkpt>
      <trkpt lat="-21.22409" lon="55.50391">
        <ele>417.83020019531</ele>
        <time>2013-01-14T05:02:57Z</time>
      </trkpt>
      <trkpt lat="-21.22419" lon="55.50393">
        <ele>417.83020019531</ele>
        <time>2013-01-14T05:03:01Z</time>
      </trkpt>
      <trkpt lat="-21.22426" lon="55.50382">
        <ele>416.86889648438</ele>
        <time>2013-01-14T05:03:07Z</time>
      </trkpt>
      <trkpt lat="-21.22429" lon="55.50382">
        <ele>415.90747070312</ele>
        <time>2013-01-14T05:03:09Z</time>
      </trkpt>
      <trkpt lat="-21.22436" lon="55.50379">
        <ele>415.42687988281</ele>
        <time>2013-01-14T05:03:15Z</time>
      </trkpt>
      <trkpt lat="-21.22443" lon="55.50378">
        <ele>414.94616699219</ele>
        <time>2013-01-14T05:03:20Z</time>
      </trkpt>
      <trkpt lat="-21.22446" lon="55.50374">
        <ele>414.46545410156</ele>
        <time>2013-01-14T05:03:26Z</time>
      </trkpt>
      <trkpt lat="-21.22442" lon="55.50379">
        <ele>413.02355957031</ele>
        <time>2013-01-14T05:03:37Z</time>
      </trkpt>
      <trkpt lat="-21.2244" lon="55.50379">
        <ele>412.54284667969</ele>
        <time>2013-01-14T05:03:40Z</time>
      </trkpt>
      <trkpt lat="-21.22433" lon="55.50376">
        <ele>409.65905761719</ele>
        <time>2013-01-14T05:03:49Z</time>
      </trkpt>
      <trkpt lat="-21.22429" lon="55.50374">
        <ele>407.736328125</ele>
        <time>2013-01-14T05:03:58Z</time>
      </trkpt>
      <trkpt lat="-21.2243" lon="55.50376">
        <ele>408.21704101562</ele>
        <time>2013-01-14T05:04:04Z</time>
      </trkpt>
      <trkpt lat="-21.22435" lon="55.50368">
        <ele>406.77490234375</ele>
        <time>2013-01-14T05:04:10Z</time>
      </trkpt>
      <trkpt lat="-21.22446" lon="55.50363">
        <ele>407.25561523438</ele>
        <time>2013-01-14T05:04:21Z</time>
      </trkpt>
      <trkpt lat="-21.22447" lon="55.50362">
        <ele>407.25561523438</ele>
        <time>2013-01-14T05:04:22Z</time>
      </trkpt>
      <trkpt lat="-21.22449" lon="55.50359">
        <ele>407.25561523438</ele>
        <time>2013-01-14T05:04:24Z</time>
      </trkpt>
      <trkpt lat="-21.22461" lon="55.50353">
        <ele>407.25561523438</ele>
        <time>2013-01-14T05:04:34Z</time>
      </trkpt>
      <trkpt lat="-21.22466" lon="55.50355">
        <ele>407.736328125</ele>
        <time>2013-01-14T05:04:37Z</time>
      </trkpt>
      <trkpt lat="-21.22469" lon="55.50351">
        <ele>408.21704101562</ele>
        <time>2013-01-14T05:04:41Z</time>
      </trkpt>
      <trkpt lat="-21.22483" lon="55.50341">
        <ele>407.25561523438</ele>
        <time>2013-01-14T05:04:55Z</time>
      </trkpt>
      <trkpt lat="-21.22506" lon="55.50336">
        <ele>407.25561523438</ele>
        <time>2013-01-14T05:05:11Z</time>
      </trkpt>
      <trkpt lat="-21.22513" lon="55.50331">
        <ele>406.77490234375</ele>
        <time>2013-01-14T05:05:19Z</time>
      </trkpt>
      <trkpt lat="-21.22517" lon="55.50328">
        <ele>406.29431152344</ele>
        <time>2013-01-14T05:05:22Z</time>
      </trkpt>
      <trkpt lat="-21.22527" lon="55.50321">
        <ele>405.81372070312</ele>
        <time>2013-01-14T05:05:35Z</time>
      </trkpt>
      <trkpt lat="-21.22537" lon="55.50311">
        <ele>406.77490234375</ele>
        <time>2013-01-14T05:05:48Z</time>
      </trkpt>
      <trkpt lat="-21.22544" lon="55.50304">
        <ele>406.29431152344</ele>
        <time>2013-01-14T05:06:03Z</time>
      </trkpt>
      <trkpt lat="-21.22552" lon="55.50299">
        <ele>406.77490234375</ele>
        <time>2013-01-14T05:06:12Z</time>
      </trkpt>
      <trkpt lat="-21.22556" lon="55.50296">
        <ele>406.29431152344</ele>
        <time>2013-01-14T05:06:17Z</time>
      </trkpt>
      <trkpt lat="-21.22559" lon="55.50293">
        <ele>406.29431152344</ele>
        <time>2013-01-14T05:06:22Z</time>
      </trkpt>
      <trkpt lat="-21.22561" lon="55.50285">
        <ele>406.29431152344</ele>
        <time>2013-01-14T05:06:24Z</time>
      </trkpt>
      <trkpt lat="-21.2257" lon="55.50272">
        <ele>407.25561523438</ele>
        <time>2013-01-14T05:06:34Z</time>
      </trkpt>
      <trkpt lat="-21.22577" lon="55.50264">
        <ele>407.25561523438</ele>
        <time>2013-01-14T05:06:50Z</time>
      </trkpt>
      <trkpt lat="-21.22584" lon="55.50241">
        <ele>407.736328125</ele>
        <time>2013-01-14T05:07:11Z</time>
      </trkpt>
      <trkpt lat="-21.2259" lon="55.50219">
        <ele>407.25561523438</ele>
        <time>2013-01-14T05:07:30Z</time>
      </trkpt>
      <trkpt lat="-21.22593" lon="55.50207">
        <ele>407.25561523438</ele>
        <time>2013-01-14T05:07:45Z</time>
      </trkpt>
      <trkpt lat="-21.22593" lon="55.50193">
        <ele>406.77490234375</ele>
        <time>2013-01-14T05:07:57Z</time>
      </trkpt>
      <trkpt lat="-21.22597" lon="55.50175">
        <ele>406.77490234375</ele>
        <time>2013-01-14T05:08:12Z</time>
      </trkpt>
      <trkpt lat="-21.22597" lon="55.50172">
        <ele>406.77490234375</ele>
        <time>2013-01-14T05:08:15Z</time>
      </trkpt>
      <trkpt lat="-21.22603" lon="55.5015">
        <ele>406.29431152344</ele>
        <time>2013-01-14T05:08:23Z</time>
      </trkpt>
      <trkpt lat="-21.22606" lon="55.50146">
        <ele>406.29431152344</ele>
        <time>2013-01-14T05:08:30Z</time>
      </trkpt>
      <trkpt lat="-21.22608" lon="55.5014">
        <ele>405.3330078125</ele>
        <time>2013-01-14T05:08:34Z</time>
      </trkpt>
      <trkpt lat="-21.22609" lon="55.50132">
        <ele>404.37170410156</ele>
        <time>2013-01-14T05:08:41Z</time>
      </trkpt>
      <trkpt lat="-21.22613" lon="55.50129">
        <ele>403.89111328125</ele>
        <time>2013-01-14T05:08:46Z</time>
      </trkpt>
      <trkpt lat="-21.22617" lon="55.50107">
        <ele>402.44909667969</ele>
        <time>2013-01-14T05:09:01Z</time>
      </trkpt>
      <trkpt lat="-21.22618" lon="55.50106">
        <ele>402.44909667969</ele>
        <time>2013-01-14T05:09:02Z</time>
      </trkpt>
      <trkpt lat="-21.2262" lon="55.50099">
        <ele>401.96850585938</ele>
        <time>2013-01-14T05:09:06Z</time>
      </trkpt>
      <trkpt lat="-21.22626" lon="55.50082">
        <ele>400.0458984375</ele>
        <time>2013-01-14T05:09:17Z</time>
      </trkpt>
      <trkpt lat="-21.22633" lon="55.50068">
        <ele>401.00708007812</ele>
        <time>2013-01-14T05:09:24Z</time>
      </trkpt>
      <trkpt lat="-21.22638" lon="55.50053">
        <ele>399.56506347656</ele>
        <time>2013-01-14T05:09:33Z</time>
      </trkpt>
      <trkpt lat="-21.22654" lon="55.5003">
        <ele>398.12316894531</ele>
        <time>2013-01-14T05:09:48Z</time>
      </trkpt>
      <trkpt lat="-21.22658" lon="55.50019">
        <ele>397.64245605469</ele>
        <time>2013-01-14T05:09:59Z</time>
      </trkpt>
      <trkpt lat="-21.22662" lon="55.50009">
        <ele>396.68115234375</ele>
        <time>2013-01-14T05:10:06Z</time>
      </trkpt>
      <trkpt lat="-21.22672" lon="55.5001">
        <ele>394.75854492188</ele>
        <time>2013-01-14T05:10:17Z</time>
      </trkpt>
      <trkpt lat="-21.22677" lon="55.50008">
        <ele>394.75854492188</ele>
        <time>2013-01-14T05:10:23Z</time>
      </trkpt>
      <trkpt lat="-21.22682" lon="55.49998">
        <ele>395.23913574219</ele>
        <time>2013-01-14T05:10:27Z</time>
      </trkpt>
      <trkpt lat="-21.22692" lon="55.49999">
        <ele>394.27795410156</ele>
        <time>2013-01-14T05:10:34Z</time>
      </trkpt>
      <trkpt lat="-21.22694" lon="55.49997">
        <ele>394.27795410156</ele>
        <time>2013-01-14T05:10:37Z</time>
      </trkpt>
      <trkpt lat="-21.22712" lon="55.49976">
        <ele>394.27795410156</ele>
        <time>2013-01-14T05:10:50Z</time>
      </trkpt>
      <trkpt lat="-21.22722" lon="55.49971">
        <ele>392.8359375</ele>
        <time>2013-01-14T05:11:01Z</time>
      </trkpt>
      <trkpt lat="-21.22722" lon="55.49958">
        <ele>391.39379882812</ele>
        <time>2013-01-14T05:11:13Z</time>
      </trkpt>
      <trkpt lat="-21.2274" lon="55.49947">
        <ele>390.91320800781</ele>
        <time>2013-01-14T05:11:25Z</time>
      </trkpt>
      <trkpt lat="-21.22752" lon="55.4994">
        <ele>388.51000976562</ele>
        <time>2013-01-14T05:11:40Z</time>
      </trkpt>
      <trkpt lat="-21.22755" lon="55.49939">
        <ele>387.54858398438</ele>
        <time>2013-01-14T05:11:43Z</time>
      </trkpt>
      <trkpt lat="-21.22751" lon="55.49929">
        <ele>384.66479492188</ele>
        <time>2013-01-14T05:11:56Z</time>
      </trkpt>
      <trkpt lat="-21.22747" lon="55.49925">
        <ele>385.14538574219</ele>
        <time>2013-01-14T05:12:11Z</time>
      </trkpt>
      <trkpt lat="-21.22748" lon="55.49921">
        <ele>385.14538574219</ele>
        <time>2013-01-14T05:12:26Z</time>
      </trkpt>
      <trkpt lat="-21.22755" lon="55.49909">
        <ele>386.10668945312</ele>
        <time>2013-01-14T05:12:52Z</time>
      </trkpt>
      <trkpt lat="-21.2276" lon="55.49909">
        <ele>386.58740234375</ele>
        <time>2013-01-14T05:12:56Z</time>
      </trkpt>
      <trkpt lat="-21.22763" lon="55.49909">
        <ele>386.10668945312</ele>
        <time>2013-01-14T05:12:59Z</time>
      </trkpt>
      <trkpt lat="-21.22765" lon="55.49908">
        <ele>386.10668945312</ele>
        <time>2013-01-14T05:13:01Z</time>
      </trkpt>
      <trkpt lat="-21.22783" lon="55.49899">
        <ele>387.06799316406</ele>
        <time>2013-01-14T05:13:14Z</time>
      </trkpt>
      <trkpt lat="-21.22802" lon="55.49891">
        <ele>387.06799316406</ele>
        <time>2013-01-14T05:13:29Z</time>
      </trkpt>
      <trkpt lat="-21.22817" lon="55.49876">
        <ele>386.10668945312</ele>
        <time>2013-01-14T05:13:49Z</time>
      </trkpt>
      <trkpt lat="-21.2282" lon="55.49873">
        <ele>386.10668945312</ele>
        <time>2013-01-14T05:13:52Z</time>
      </trkpt>
      <trkpt lat="-21.22836" lon="55.49872">
        <ele>385.14538574219</ele>
        <time>2013-01-14T05:14:05Z</time>
      </trkpt>
      <trkpt lat="-21.22841" lon="55.4987">
        <ele>385.14538574219</ele>
        <time>2013-01-14T05:14:10Z</time>
      </trkpt>
      <trkpt lat="-21.22861" lon="55.49867">
        <ele>383.22265625</ele>
        <time>2013-01-14T05:14:26Z</time>
      </trkpt>
      <trkpt lat="-21.22862" lon="55.49867">
        <ele>381.78063964844</ele>
        <time>2013-01-14T05:14:27Z</time>
      </trkpt>
      <trkpt lat="-21.22864" lon="55.49865">
        <ele>382.74206542969</ele>
        <time>2013-01-14T05:14:29Z</time>
      </trkpt>
      <trkpt lat="-21.22881" lon="55.49858">
        <ele>380.81945800781</ele>
        <time>2013-01-14T05:14:42Z</time>
      </trkpt>
      <trkpt lat="-21.22893" lon="55.49851">
        <ele>380.81945800781</ele>
        <time>2013-01-14T05:14:49Z</time>
      </trkpt>
      <trkpt lat="-21.2291" lon="55.49843">
        <ele>380.33874511719</ele>
        <time>2013-01-14T05:15:06Z</time>
      </trkpt>
      <trkpt lat="-21.22911" lon="55.49838">
        <ele>380.33874511719</ele>
        <time>2013-01-14T05:15:08Z</time>
      </trkpt>
      <trkpt lat="-21.22917" lon="55.49816">
        <ele>378.41613769531</ele>
        <time>2013-01-14T05:15:22Z</time>
      </trkpt>
      <trkpt lat="-21.22917" lon="55.49814">
        <ele>379.85803222656</ele>
        <time>2013-01-14T05:15:23Z</time>
      </trkpt>
      <trkpt lat="-21.22919" lon="55.49807">
        <ele>379.37744140625</ele>
        <time>2013-01-14T05:15:27Z</time>
      </trkpt>
      <trkpt lat="-21.22931" lon="55.49789">
        <ele>378.41613769531</ele>
        <time>2013-01-14T05:15:38Z</time>
      </trkpt>
      <trkpt lat="-21.22928" lon="55.49784">
        <ele>378.41613769531</ele>
        <time>2013-01-14T05:15:45Z</time>
      </trkpt>
      <trkpt lat="-21.22937" lon="55.49757">
        <ele>377.93542480469</ele>
        <time>2013-01-14T05:15:57Z</time>
      </trkpt>
      <trkpt lat="-21.22939" lon="55.49754">
        <ele>377.93542480469</ele>
        <time>2013-01-14T05:16:00Z</time>
      </trkpt>
      <trkpt lat="-21.22943" lon="55.4975">
        <ele>376.97424316406</ele>
        <time>2013-01-14T05:16:03Z</time>
      </trkpt>
      <trkpt lat="-21.22952" lon="55.49748">
        <ele>377.45483398438</ele>
        <time>2013-01-14T05:16:09Z</time>
      </trkpt>
      <trkpt lat="-21.22959" lon="55.4975">
        <ele>376.49353027344</ele>
        <time>2013-01-14T05:16:18Z</time>
      </trkpt>
      <trkpt lat="-21.22966" lon="55.49737">
        <ele>376.01281738281</ele>
        <time>2013-01-14T05:16:25Z</time>
      </trkpt>
      <trkpt lat="-21.22972" lon="55.49732">
        <ele>376.01281738281</ele>
        <time>2013-01-14T05:16:32Z</time>
      </trkpt>
      <trkpt lat="-21.22975" lon="55.49721">
        <ele>374.09008789062</ele>
        <time>2013-01-14T05:16:45Z</time>
      </trkpt>
      <trkpt lat="-21.22986" lon="55.49708">
        <ele>371.68688964844</ele>
        <time>2013-01-14T05:17:06Z</time>
      </trkpt>
      <trkpt lat="-21.22994" lon="55.49711">
        <ele>370.7255859375</ele>
        <time>2013-01-14T05:17:21Z</time>
      </trkpt>
      <trkpt lat="-21.22996" lon="55.49714">
        <ele>371.20629882812</ele>
        <time>2013-01-14T05:17:38Z</time>
      </trkpt>
      <trkpt lat="-21.22995" lon="55.49707">
        <ele>372.16748046875</ele>
        <time>2013-01-14T05:17:53Z</time>
      </trkpt>
      <trkpt lat="-21.22995" lon="55.49707">
        <ele>371.68688964844</ele>
        <time>2013-01-14T05:18:00Z</time>
      </trkpt>
      <trkpt lat="-21.22993" lon="55.49698">
        <ele>374.09008789062</ele>
        <time>2013-01-14T05:18:14Z</time>
      </trkpt>
      <trkpt lat="-21.22998" lon="55.49696">
        <ele>376.97424316406</ele>
        <time>2013-01-14T05:18:25Z</time>
      </trkpt>
      <trkpt lat="-21.22999" lon="55.49696">
        <ele>379.37744140625</ele>
        <time>2013-01-14T05:18:41Z</time>
      </trkpt>
      <trkpt lat="-21.22997" lon="55.4969">
        <ele>383.70324707031</ele>
        <time>2013-01-14T05:19:02Z</time>
      </trkpt>
      <trkpt lat="-21.22997" lon="55.49689">
        <ele>385.14538574219</ele>
        <time>2013-01-14T05:19:15Z</time>
      </trkpt>
      <trkpt lat="-21.23001" lon="55.49694">
        <ele>388.51000976562</ele>
        <time>2013-01-14T05:19:23Z</time>
      </trkpt>
      <trkpt lat="-21.23002" lon="55.49693">
        <ele>388.99060058594</ele>
        <time>2013-01-14T05:19:25Z</time>
      </trkpt>
      <trkpt lat="-21.23004" lon="55.49691">
        <ele>391.87451171875</ele>
        <time>2013-01-14T05:19:37Z</time>
      </trkpt>
      <trkpt lat="-21.23016" lon="55.49691">
        <ele>395.23913574219</ele>
        <time>2013-01-14T05:19:47Z</time>
      </trkpt>
      <trkpt lat="-21.23015" lon="55.49691">
        <ele>399.08435058594</ele>
        <time>2013-01-14T05:20:00Z</time>
      </trkpt>
      <trkpt lat="-21.2302" lon="55.49683">
        <ele>401.96850585938</ele>
        <time>2013-01-14T05:20:14Z</time>
      </trkpt>
      <trkpt lat="-21.23023" lon="55.49682">
        <ele>405.3330078125</ele>
        <time>2013-01-14T05:20:26Z</time>
      </trkpt>
      <trkpt lat="-21.2302" lon="55.49676">
        <ele>408.69763183594</ele>
        <time>2013-01-14T05:20:35Z</time>
      </trkpt>
      <trkpt lat="-21.2302" lon="55.49677">
        <ele>408.69763183594</ele>
        <time>2013-01-14T05:20:36Z</time>
      </trkpt>
      <trkpt lat="-21.23021" lon="55.49677">
        <ele>409.65905761719</ele>
        <time>2013-01-14T05:20:39Z</time>
      </trkpt>
      <trkpt lat="-21.23021" lon="55.49677">
        <ele>409.17834472656</ele>
        <time>2013-01-14T05:20:40Z</time>
      </trkpt>
      <trkpt lat="-21.23033" lon="55.49682">
        <ele>411.10095214844</ele>
        <time>2013-01-14T05:20:46Z</time>
      </trkpt>
      <trkpt lat="-21.23036" lon="55.49682">
        <ele>414.46545410156</ele>
        <time>2013-01-14T05:20:58Z</time>
      </trkpt>
      <trkpt lat="-21.23036" lon="55.49684">
        <ele>414.94616699219</ele>
        <time>2013-01-14T05:21:00Z</time>
      </trkpt>
      <trkpt lat="-21.23039" lon="55.49688">
        <ele>417.349609375</ele>
        <time>2013-01-14T05:21:08Z</time>
      </trkpt>
      <trkpt lat="-21.23044" lon="55.49701">
        <ele>421.19482421875</ele>
        <time>2013-01-14T05:21:21Z</time>
      </trkpt>
      <trkpt lat="-21.23059" lon="55.49714">
        <ele>424.55944824219</ele>
        <time>2013-01-14T05:21:36Z</time>
      </trkpt>
      <trkpt lat="-21.23056" lon="55.4971">
        <ele>426.00134277344</ele>
        <time>2013-01-14T05:21:43Z</time>
      </trkpt>
      <trkpt lat="-21.23064" lon="55.49691">
        <ele>429.84655761719</ele>
        <time>2013-01-14T05:21:52Z</time>
      </trkpt>
      <trkpt lat="-21.23065" lon="55.49689">
        <ele>429.84655761719</ele>
        <time>2013-01-14T05:21:53Z</time>
      </trkpt>
      <trkpt lat="-21.23066" lon="55.49686">
        <ele>429.36596679688</ele>
        <time>2013-01-14T05:21:55Z</time>
      </trkpt>
      <trkpt lat="-21.23067" lon="55.4968">
        <ele>429.36596679688</ele>
        <time>2013-01-14T05:21:57Z</time>
      </trkpt>
      <trkpt lat="-21.23069" lon="55.49674">
        <ele>431.76916503906</ele>
        <time>2013-01-14T05:22:02Z</time>
      </trkpt>
      <trkpt lat="-21.23071" lon="55.49668">
        <ele>437.05651855469</ele>
        <time>2013-01-14T05:22:06Z</time>
      </trkpt>
      <trkpt lat="-21.23072" lon="55.49667">
        <ele>437.05651855469</ele>
        <time>2013-01-14T05:22:07Z</time>
      </trkpt>
      <trkpt lat="-21.23072" lon="55.49667">
        <ele>432.73071289062</ele>
        <time>2013-01-14T05:22:08Z</time>
      </trkpt>
      <trkpt lat="-21.2308" lon="55.49646">
        <ele>434.17260742188</ele>
        <time>2013-01-14T05:22:22Z</time>
      </trkpt>
      <trkpt lat="-21.23086" lon="55.49646">
        <ele>437.05651855469</ele>
        <time>2013-01-14T05:22:31Z</time>
      </trkpt>
      <trkpt lat="-21.2309" lon="55.49653">
        <ele>440.90185546875</ele>
        <time>2013-01-14T05:22:42Z</time>
      </trkpt>
      <trkpt lat="-21.23097" lon="55.49666">
        <ele>443.30505371094</ele>
        <time>2013-01-14T05:22:51Z</time>
      </trkpt>
      <trkpt lat="-21.23088" lon="55.49667">
        <ele>446.66967773438</ele>
        <time>2013-01-14T05:23:01Z</time>
      </trkpt>
      <trkpt lat="-21.23088" lon="55.49677">
        <ele>450.03442382812</ele>
        <time>2013-01-14T05:23:11Z</time>
      </trkpt>
      <trkpt lat="-21.23087" lon="55.49678">
        <ele>450.03442382812</ele>
        <time>2013-01-14T05:23:12Z</time>
      </trkpt>
      <trkpt lat="-21.23083" lon="55.49675">
        <ele>453.39892578125</ele>
        <time>2013-01-14T05:23:26Z</time>
      </trkpt>
      <trkpt lat="-21.23082" lon="55.49675">
        <ele>453.87963867188</ele>
        <time>2013-01-14T05:23:28Z</time>
      </trkpt>
      <trkpt lat="-21.2308" lon="55.49675">
        <ele>455.80224609375</ele>
        <time>2013-01-14T05:23:35Z</time>
      </trkpt>
      <trkpt lat="-21.2308" lon="55.4968">
        <ele>456.76354980469</ele>
        <time>2013-01-14T05:23:39Z</time>
      </trkpt>
      <trkpt lat="-21.23087" lon="55.49684">
        <ele>459.16687011719</ele>
        <time>2013-01-14T05:23:49Z</time>
      </trkpt>
      <trkpt lat="-21.23084" lon="55.4968">
        <ele>460.60876464844</ele>
        <time>2013-01-14T05:23:51Z</time>
      </trkpt>
      <trkpt lat="-21.23087" lon="55.49673">
        <ele>460.60876464844</ele>
        <time>2013-01-14T05:23:57Z</time>
      </trkpt>
      <trkpt lat="-21.23092" lon="55.49674">
        <ele>460.12817382812</ele>
        <time>2013-01-14T05:24:02Z</time>
      </trkpt>
      <trkpt lat="-21.23095" lon="55.49683">
        <ele>462.05078125</ele>
        <time>2013-01-14T05:24:06Z</time>
      </trkpt>
      <trkpt lat="-21.23099" lon="55.49709">
        <ele>463.49279785156</ele>
        <time>2013-01-14T05:24:20Z</time>
      </trkpt>
      <trkpt lat="-21.23098" lon="55.4972">
        <ele>467.33813476562</ele>
        <time>2013-01-14T05:24:30Z</time>
      </trkpt>
      <trkpt lat="-21.23098" lon="55.4972">
        <ele>467.33813476562</ele>
        <time>2013-01-14T05:24:31Z</time>
      </trkpt>
      <trkpt lat="-21.23097" lon="55.49723">
        <ele>467.33813476562</ele>
        <time>2013-01-14T05:24:33Z</time>
      </trkpt>
      <trkpt lat="-21.23094" lon="55.49728">
        <ele>467.81872558594</ele>
        <time>2013-01-14T05:24:35Z</time>
      </trkpt>
      <trkpt lat="-21.2309" lon="55.49737">
        <ele>472.14465332031</ele>
        <time>2013-01-14T05:24:46Z</time>
      </trkpt>
      <trkpt lat="-21.2309" lon="55.49737">
        <ele>472.14465332031</ele>
        <time>2013-01-14T05:24:47Z</time>
      </trkpt>
      <trkpt lat="-21.2309" lon="55.49741">
        <ele>473.10607910156</ele>
        <time>2013-01-14T05:24:53Z</time>
      </trkpt>
      <trkpt lat="-21.23091" lon="55.49752">
        <ele>475.98986816406</ele>
        <time>2013-01-14T05:25:04Z</time>
      </trkpt>
      <trkpt lat="-21.23084" lon="55.49758">
        <ele>479.83508300781</ele>
        <time>2013-01-14T05:25:16Z</time>
      </trkpt>
      <trkpt lat="-21.23083" lon="55.49767">
        <ele>482.71923828125</ele>
        <time>2013-01-14T05:25:24Z</time>
      </trkpt>
      <trkpt lat="-21.23077" lon="55.49774">
        <ele>485.12243652344</ele>
        <time>2013-01-14T05:25:36Z</time>
      </trkpt>
      <trkpt lat="-21.23072" lon="55.49778">
        <ele>487.52563476562</ele>
        <time>2013-01-14T05:25:47Z</time>
      </trkpt>
      <trkpt lat="-21.2307" lon="55.49784">
        <ele>488.9677734375</ele>
        <time>2013-01-14T05:25:49Z</time>
      </trkpt>
      <trkpt lat="-21.23067" lon="55.49788">
        <ele>490.40979003906</ele>
        <time>2013-01-14T05:25:54Z</time>
      </trkpt>
      <trkpt lat="-21.2306" lon="55.49789">
        <ele>493.77429199219</ele>
        <time>2013-01-14T05:26:09Z</time>
      </trkpt>
      <trkpt lat="-21.23065" lon="55.49788">
        <ele>494.73559570312</ele>
        <time>2013-01-14T05:26:14Z</time>
      </trkpt>
      <trkpt lat="-21.23081" lon="55.49777">
        <ele>497.61962890625</ele>
        <time>2013-01-14T05:26:28Z</time>
      </trkpt>
      <trkpt lat="-21.23084" lon="55.4978">
        <ele>498.10034179688</ele>
        <time>2013-01-14T05:26:33Z</time>
      </trkpt>
      <trkpt lat="-21.231" lon="55.49787">
        <ele>500.02294921875</ele>
        <time>2013-01-14T05:26:46Z</time>
      </trkpt>
      <trkpt lat="-21.23113" lon="55.49782">
        <ele>503.38745117188</ele>
        <time>2013-01-14T05:26:55Z</time>
      </trkpt>
      <trkpt lat="-21.23112" lon="55.49784">
        <ele>503.8681640625</ele>
        <time>2013-01-14T05:26:57Z</time>
      </trkpt>
      <trkpt lat="-21.23116" lon="55.49787">
        <ele>504.82946777344</ele>
        <time>2013-01-14T05:27:02Z</time>
      </trkpt>
      <trkpt lat="-21.23118" lon="55.49787">
        <ele>504.82946777344</ele>
        <time>2013-01-14T05:27:05Z</time>
      </trkpt>
      <trkpt lat="-21.23124" lon="55.49795">
        <ele>506.75207519531</ele>
        <time>2013-01-14T05:27:15Z</time>
      </trkpt>
      <trkpt lat="-21.23135" lon="55.49781">
        <ele>510.59729003906</ele>
        <time>2013-01-14T05:27:26Z</time>
      </trkpt>
      <trkpt lat="-21.23144" lon="55.49772">
        <ele>513.00073242188</ele>
        <time>2013-01-14T05:27:38Z</time>
      </trkpt>
      <trkpt lat="-21.23143" lon="55.49772">
        <ele>513.4814453125</ele>
        <time>2013-01-14T05:27:39Z</time>
      </trkpt>
      <trkpt lat="-21.23144" lon="55.49777">
        <ele>514.92333984375</ele>
        <time>2013-01-14T05:27:41Z</time>
      </trkpt>
      <trkpt lat="-21.23142" lon="55.4979">
        <ele>516.365234375</ele>
        <time>2013-01-14T05:27:51Z</time>
      </trkpt>
      <trkpt lat="-21.23143" lon="55.49791">
        <ele>516.84594726562</ele>
        <time>2013-01-14T05:27:54Z</time>
      </trkpt>
      <trkpt lat="-21.23145" lon="55.4979">
        <ele>518.7685546875</ele>
        <time>2013-01-14T05:28:01Z</time>
      </trkpt>
      <trkpt lat="-21.23146" lon="55.49778">
        <ele>520.69128417969</ele>
        <time>2013-01-14T05:28:09Z</time>
      </trkpt>
      <trkpt lat="-21.23152" lon="55.49781">
        <ele>520.21057128906</ele>
        <time>2013-01-14T05:28:16Z</time>
      </trkpt>
      <trkpt lat="-21.23158" lon="55.49791">
        <ele>518.7685546875</ele>
        <time>2013-01-14T05:28:22Z</time>
      </trkpt>
      <trkpt lat="-21.23162" lon="55.49791">
        <ele>518.28784179688</ele>
        <time>2013-01-14T05:28:25Z</time>
      </trkpt>
      <trkpt lat="-21.23171" lon="55.49777">
        <ele>519.72985839844</ele>
        <time>2013-01-14T05:28:31Z</time>
      </trkpt>
      <trkpt lat="-21.23173" lon="55.49773">
        <ele>520.21057128906</ele>
        <time>2013-01-14T05:28:35Z</time>
      </trkpt>
      <trkpt lat="-21.23178" lon="55.49772">
        <ele>522.61389160156</ele>
        <time>2013-01-14T05:28:43Z</time>
      </trkpt>
      <trkpt lat="-21.23181" lon="55.49773">
        <ele>522.61389160156</ele>
        <time>2013-01-14T05:28:45Z</time>
      </trkpt>
      <trkpt lat="-21.23191" lon="55.49768">
        <ele>526.45910644531</ele>
        <time>2013-01-14T05:28:56Z</time>
      </trkpt>
      <trkpt lat="-21.23191" lon="55.49769">
        <ele>528.3818359375</ele>
        <time>2013-01-14T05:29:02Z</time>
      </trkpt>
      <trkpt lat="-21.232" lon="55.49767">
        <ele>530.78515625</ele>
        <time>2013-01-14T05:29:14Z</time>
      </trkpt>
      <trkpt lat="-21.23197" lon="55.49769">
        <ele>532.70776367188</ele>
        <time>2013-01-14T05:29:19Z</time>
      </trkpt>
      <trkpt lat="-21.23191" lon="55.49774">
        <ele>534.63037109375</ele>
        <time>2013-01-14T05:29:26Z</time>
      </trkpt>
      <trkpt lat="-21.23188" lon="55.49775">
        <ele>534.63037109375</ele>
        <time>2013-01-14T05:29:29Z</time>
      </trkpt>
      <trkpt lat="-21.23187" lon="55.49774">
        <ele>536.07238769531</ele>
        <time>2013-01-14T05:29:31Z</time>
      </trkpt>
      <trkpt lat="-21.23184" lon="55.49784">
        <ele>537.03369140625</ele>
        <time>2013-01-14T05:29:39Z</time>
      </trkpt>
      <trkpt lat="-21.23183" lon="55.49781">
        <ele>539.43688964844</ele>
        <time>2013-01-14T05:29:46Z</time>
      </trkpt>
      <trkpt lat="-21.23191" lon="55.49782">
        <ele>541.84020996094</ele>
        <time>2013-01-14T05:29:55Z</time>
      </trkpt>
      <trkpt lat="-21.23203" lon="55.49788">
        <ele>545.20483398438</ele>
        <time>2013-01-14T05:30:08Z</time>
      </trkpt>
      <trkpt lat="-21.23204" lon="55.49782">
        <ele>548.5693359375</ele>
        <time>2013-01-14T05:30:21Z</time>
      </trkpt>
      <trkpt lat="-21.23205" lon="55.49782">
        <ele>548.5693359375</ele>
        <time>2013-01-14T05:30:22Z</time>
      </trkpt>
      <trkpt lat="-21.23212" lon="55.49785">
        <ele>551.93408203125</ele>
        <time>2013-01-14T05:30:35Z</time>
      </trkpt>
      <trkpt lat="-21.2321" lon="55.49783">
        <ele>552.89526367188</ele>
        <time>2013-01-14T05:30:37Z</time>
      </trkpt>
      <trkpt lat="-21.23198" lon="55.49794">
        <ele>556.74072265625</ele>
        <time>2013-01-14T05:30:52Z</time>
      </trkpt>
      <trkpt lat="-21.23197" lon="55.498">
        <ele>558.66333007812</ele>
        <time>2013-01-14T05:31:00Z</time>
      </trkpt>
      <trkpt lat="-21.23202" lon="55.498">
        <ele>561.54736328125</ele>
        <time>2013-01-14T05:31:10Z</time>
      </trkpt>
      <trkpt lat="-21.23201" lon="55.498">
        <ele>562.50854492188</ele>
        <time>2013-01-14T05:31:13Z</time>
      </trkpt>
      <trkpt lat="-21.23203" lon="55.49804">
        <ele>562.9892578125</ele>
        <time>2013-01-14T05:31:16Z</time>
      </trkpt>
      <trkpt lat="-21.232" lon="55.49813">
        <ele>566.83447265625</ele>
        <time>2013-01-14T05:31:31Z</time>
      </trkpt>
      <trkpt lat="-21.23201" lon="55.49814">
        <ele>568.75708007812</ele>
        <time>2013-01-14T05:31:37Z</time>
      </trkpt>
      <trkpt lat="-21.2321" lon="55.49815">
        <ele>569.71850585938</ele>
        <time>2013-01-14T05:31:42Z</time>
      </trkpt>
      <trkpt lat="-21.23212" lon="55.49808">
        <ele>571.16040039062</ele>
        <time>2013-01-14T05:31:48Z</time>
      </trkpt>
      <trkpt lat="-21.23215" lon="55.49803">
        <ele>572.12182617188</ele>
        <time>2013-01-14T05:32:02Z</time>
      </trkpt>
      <trkpt lat="-21.23225" lon="55.49797">
        <ele>573.56396484375</ele>
        <time>2013-01-14T05:32:07Z</time>
      </trkpt>
      <trkpt lat="-21.23236" lon="55.49794">
        <ele>575.96704101562</ele>
        <time>2013-01-14T05:32:18Z</time>
      </trkpt>
      <trkpt lat="-21.2325" lon="55.49786">
        <ele>577.8896484375</ele>
        <time>2013-01-14T05:32:29Z</time>
      </trkpt>
      <trkpt lat="-21.23259" lon="55.49782">
        <ele>580.77368164062</ele>
        <time>2013-01-14T05:32:41Z</time>
      </trkpt>
      <trkpt lat="-21.23269" lon="55.49776">
        <ele>582.21557617188</ele>
        <time>2013-01-14T05:32:49Z</time>
      </trkpt>
      <trkpt lat="-21.23273" lon="55.49776">
        <ele>583.1767578125</ele>
        <time>2013-01-14T05:32:52Z</time>
      </trkpt>
      <trkpt lat="-21.23276" lon="55.49775">
        <ele>583.1767578125</ele>
        <time>2013-01-14T05:32:55Z</time>
      </trkpt>
      <trkpt lat="-21.23288" lon="55.49769">
        <ele>587.50268554688</ele>
        <time>2013-01-14T05:33:06Z</time>
      </trkpt>
      <trkpt lat="-21.23292" lon="55.49766">
        <ele>588.46435546875</ele>
        <time>2013-01-14T05:33:14Z</time>
      </trkpt>
      <trkpt lat="-21.23305" lon="55.49763">
        <ele>591.34814453125</ele>
        <time>2013-01-14T05:33:25Z</time>
      </trkpt>
      <trkpt lat="-21.23301" lon="55.49763">
        <ele>594.71264648438</ele>
        <time>2013-01-14T05:33:40Z</time>
      </trkpt>
      <trkpt lat="-21.23292" lon="55.49765">
        <ele>595.67407226562</ele>
        <time>2013-01-14T05:33:45Z</time>
      </trkpt>
      <trkpt lat="-21.23293" lon="55.49768">
        <ele>597.5966796875</ele>
        <time>2013-01-14T05:33:53Z</time>
      </trkpt>
      <trkpt lat="-21.23295" lon="55.49769">
        <ele>598.55786132812</ele>
        <time>2013-01-14T05:33:55Z</time>
      </trkpt>
      <trkpt lat="-21.23305" lon="55.4977">
        <ele>600</ele>
        <time>2013-01-14T05:34:05Z</time>
      </trkpt>
      <trkpt lat="-21.23307" lon="55.4977">
        <ele>601.44189453125</ele>
        <time>2013-01-14T05:34:09Z</time>
      </trkpt>
      <trkpt lat="-21.23314" lon="55.49774">
        <ele>604.326171875</ele>
        <time>2013-01-14T05:34:22Z</time>
      </trkpt>
      <trkpt lat="-21.23316" lon="55.49774">
        <ele>605.28735351562</ele>
        <time>2013-01-14T05:34:25Z</time>
      </trkpt>
      <trkpt lat="-21.23327" lon="55.49778">
        <ele>609.13256835938</ele>
        <time>2013-01-14T05:34:39Z</time>
      </trkpt>
      <trkpt lat="-21.23337" lon="55.49779">
        <ele>612.4970703125</ele>
        <time>2013-01-14T05:34:52Z</time>
      </trkpt>
      <trkpt lat="-21.23338" lon="55.49784">
        <ele>616.34228515625</ele>
        <time>2013-01-14T05:35:04Z</time>
      </trkpt>
      <trkpt lat="-21.23336" lon="55.49787">
        <ele>619.22631835938</ele>
        <time>2013-01-14T05:35:18Z</time>
      </trkpt>
      <trkpt lat="-21.2334" lon="55.49795">
        <ele>622.59106445312</ele>
        <time>2013-01-14T05:35:32Z</time>
      </trkpt>
      <trkpt lat="-21.2335" lon="55.49811">
        <ele>625.95556640625</ele>
        <time>2013-01-14T05:35:44Z</time>
      </trkpt>
      <trkpt lat="-21.23356" lon="55.49803">
        <ele>628.83959960938</ele>
        <time>2013-01-14T05:35:53Z</time>
      </trkpt>
      <trkpt lat="-21.23356" lon="55.49803">
        <ele>628.83959960938</ele>
        <time>2013-01-14T05:35:54Z</time>
      </trkpt>
      <trkpt lat="-21.23354" lon="55.49802">
        <ele>632.2041015625</ele>
        <time>2013-01-14T05:36:07Z</time>
      </trkpt>
      <trkpt lat="-21.23345" lon="55.49809">
        <ele>635.08813476562</ele>
        <time>2013-01-14T05:36:20Z</time>
      </trkpt>
      <trkpt lat="-21.23345" lon="55.49809">
        <ele>635.08813476562</ele>
        <time>2013-01-14T05:36:21Z</time>
      </trkpt>
      <trkpt lat="-21.2336" lon="55.49812">
        <ele>637.49145507812</ele>
        <time>2013-01-14T05:36:33Z</time>
      </trkpt>
      <trkpt lat="-21.23366" lon="55.49812">
        <ele>640.37548828125</ele>
        <time>2013-01-14T05:36:43Z</time>
      </trkpt>
      <trkpt lat="-21.23361" lon="55.49823">
        <ele>644.220703125</ele>
        <time>2013-01-14T05:36:57Z</time>
      </trkpt>
      <trkpt lat="-21.23349" lon="55.49844">
        <ele>645.66259765625</ele>
        <time>2013-01-14T05:37:08Z</time>
      </trkpt>
      <trkpt lat="-21.23342" lon="55.49842">
        <ele>648.06591796875</ele>
        <time>2013-01-14T05:37:16Z</time>
      </trkpt>
      <trkpt lat="-21.23326" lon="55.49845">
        <ele>651.43041992188</ele>
        <time>2013-01-14T05:37:34Z</time>
      </trkpt>
      <trkpt lat="-21.23327" lon="55.49836">
        <ele>654.79516601562</ele>
        <time>2013-01-14T05:37:42Z</time>
      </trkpt>
      <trkpt lat="-21.23327" lon="55.49833">
        <ele>654.79516601562</ele>
        <time>2013-01-14T05:37:43Z</time>
      </trkpt>
      <trkpt lat="-21.23334" lon="55.49833">
        <ele>657.67919921875</ele>
        <time>2013-01-14T05:37:55Z</time>
      </trkpt>
      <trkpt lat="-21.2335" lon="55.49826">
        <ele>658.15991210938</ele>
        <time>2013-01-14T05:38:05Z</time>
      </trkpt>
      <trkpt lat="-21.23354" lon="55.49834">
        <ele>660.56298828125</ele>
        <time>2013-01-14T05:38:14Z</time>
      </trkpt>
      <trkpt lat="-21.23356" lon="55.49837">
        <ele>662.00512695312</ele>
        <time>2013-01-14T05:38:20Z</time>
      </trkpt>
      <trkpt lat="-21.23363" lon="55.49837">
        <ele>664.88891601562</ele>
        <time>2013-01-14T05:38:31Z</time>
      </trkpt>
      <trkpt lat="-21.23364" lon="55.49839">
        <ele>668.25366210938</ele>
        <time>2013-01-14T05:38:40Z</time>
      </trkpt>
      <trkpt lat="-21.23354" lon="55.49839">
        <ele>669.69580078125</ele>
        <time>2013-01-14T05:38:53Z</time>
      </trkpt>
      <trkpt lat="-21.23349" lon="55.49848">
        <ele>673.06030273438</ele>
        <time>2013-01-14T05:39:03Z</time>
      </trkpt>
      <trkpt lat="-21.23358" lon="55.49853">
        <ele>674.50219726562</ele>
        <time>2013-01-14T05:39:17Z</time>
      </trkpt>
      <trkpt lat="-21.23359" lon="55.49854">
        <ele>677.86669921875</ele>
        <time>2013-01-14T05:39:28Z</time>
      </trkpt>
      <trkpt lat="-21.23357" lon="55.49855">
        <ele>679.30859375</ele>
        <time>2013-01-14T05:39:31Z</time>
      </trkpt>
      <trkpt lat="-21.23355" lon="55.49852">
        <ele>679.78930664062</ele>
        <time>2013-01-14T05:39:35Z</time>
      </trkpt>
      <trkpt lat="-21.2334" lon="55.49851">
        <ele>680.75073242188</ele>
        <time>2013-01-14T05:39:50Z</time>
      </trkpt>
      <trkpt lat="-21.2334" lon="55.49851">
        <ele>681.2314453125</ele>
        <time>2013-01-14T05:39:51Z</time>
      </trkpt>
      <trkpt lat="-21.23341" lon="55.49852">
        <ele>683.15380859375</ele>
        <time>2013-01-14T05:39:55Z</time>
      </trkpt>
      <trkpt lat="-21.23345" lon="55.49857">
        <ele>686.51879882812</ele>
        <time>2013-01-14T05:40:07Z</time>
      </trkpt>
      <trkpt lat="-21.23346" lon="55.49858">
        <ele>686.99926757812</ele>
        <time>2013-01-14T05:40:09Z</time>
      </trkpt>
      <trkpt lat="-21.23355" lon="55.49859">
        <ele>689.88330078125</ele>
        <time>2013-01-14T05:40:23Z</time>
      </trkpt>
      <trkpt lat="-21.23359" lon="55.49863">
        <ele>693.24780273438</ele>
        <time>2013-01-14T05:40:33Z</time>
      </trkpt>
      <trkpt lat="-21.23363" lon="55.49873">
        <ele>696.1318359375</ele>
        <time>2013-01-14T05:40:45Z</time>
      </trkpt>
      <trkpt lat="-21.23361" lon="55.49871">
        <ele>699.015625</ele>
        <time>2013-01-14T05:40:55Z</time>
      </trkpt>
      <trkpt lat="-21.23351" lon="55.49883">
        <ele>701.41918945312</ele>
        <time>2013-01-14T05:41:08Z</time>
      </trkpt>
      <trkpt lat="-21.23354" lon="55.49881">
        <ele>704.30322265625</ele>
        <time>2013-01-14T05:41:21Z</time>
      </trkpt>
      <trkpt lat="-21.23342" lon="55.49873">
        <ele>707.66772460938</ele>
        <time>2013-01-14T05:41:42Z</time>
      </trkpt>
      <trkpt lat="-21.23332" lon="55.49863">
        <ele>711.51293945312</ele>
        <time>2013-01-14T05:41:56Z</time>
      </trkpt>
      <trkpt lat="-21.23322" lon="55.4987">
        <ele>713.916015625</ele>
        <time>2013-01-14T05:42:09Z</time>
      </trkpt>
      <trkpt lat="-21.23309" lon="55.49877">
        <ele>716.80029296875</ele>
        <time>2013-01-14T05:42:24Z</time>
      </trkpt>
      <trkpt lat="-21.23317" lon="55.49878">
        <ele>720.16479492188</ele>
        <time>2013-01-14T05:42:36Z</time>
      </trkpt>
      <trkpt lat="-21.23324" lon="55.49874">
        <ele>723.048828125</ele>
        <time>2013-01-14T05:42:47Z</time>
      </trkpt>
      <trkpt lat="-21.23328" lon="55.49879">
        <ele>724.01000976562</ele>
        <time>2013-01-14T05:42:57Z</time>
      </trkpt>
      <trkpt lat="-21.23332" lon="55.49888">
        <ele>726.89404296875</ele>
        <time>2013-01-14T05:43:12Z</time>
      </trkpt>
      <trkpt lat="-21.23332" lon="55.49899">
        <ele>730.25854492188</ele>
        <time>2013-01-14T05:43:24Z</time>
      </trkpt>
      <trkpt lat="-21.23332" lon="55.49907">
        <ele>732.662109375</ele>
        <time>2013-01-14T05:43:36Z</time>
      </trkpt>
      <trkpt lat="-21.23332" lon="55.49911">
        <ele>734.10400390625</ele>
        <time>2013-01-14T05:43:41Z</time>
      </trkpt>
      <trkpt lat="-21.23327" lon="55.49924">
        <ele>736.02661132812</ele>
        <time>2013-01-14T05:43:52Z</time>
      </trkpt>
      <trkpt lat="-21.23333" lon="55.49928">
        <ele>739.87182617188</ele>
        <time>2013-01-14T05:44:04Z</time>
      </trkpt>
      <trkpt lat="-21.23335" lon="55.49916">
        <ele>741.79443359375</ele>
        <time>2013-01-14T05:44:13Z</time>
      </trkpt>
      <trkpt lat="-21.23333" lon="55.49908">
        <ele>743.236328125</ele>
        <time>2013-01-14T05:44:24Z</time>
      </trkpt>
      <trkpt lat="-21.2333" lon="55.49915">
        <ele>745.6396484375</ele>
        <time>2013-01-14T05:44:34Z</time>
      </trkpt>
      <trkpt lat="-21.23332" lon="55.49922">
        <ele>749.00439453125</ele>
        <time>2013-01-14T05:44:47Z</time>
      </trkpt>
      <trkpt lat="-21.23342" lon="55.49937">
        <ele>752.36889648438</ele>
        <time>2013-01-14T05:45:09Z</time>
      </trkpt>
      <trkpt lat="-21.23345" lon="55.49938">
        <ele>752.849609375</ele>
        <time>2013-01-14T05:45:14Z</time>
      </trkpt>
      <trkpt lat="-21.23357" lon="55.49948">
        <ele>755.73364257812</ele>
        <time>2013-01-14T05:45:27Z</time>
      </trkpt>
      <trkpt lat="-21.2337" lon="55.49956">
        <ele>758.13696289062</ele>
        <time>2013-01-14T05:45:40Z</time>
      </trkpt>
      <trkpt lat="-21.23381" lon="55.49957">
        <ele>761.50146484375</ele>
        <time>2013-01-14T05:45:55Z</time>
      </trkpt>
      <trkpt lat="-21.23399" lon="55.49958">
        <ele>764.38549804688</ele>
        <time>2013-01-14T05:46:14Z</time>
      </trkpt>
      <trkpt lat="-21.23407" lon="55.49963">
        <ele>767.75</ele>
        <time>2013-01-14T05:46:27Z</time>
      </trkpt>
      <trkpt lat="-21.23414" lon="55.49973">
        <ele>771.11474609375</ele>
        <time>2013-01-14T05:46:43Z</time>
      </trkpt>
      <trkpt lat="-21.23413" lon="55.4998">
        <ele>773.99853515625</ele>
        <time>2013-01-14T05:46:58Z</time>
      </trkpt>
      <trkpt lat="-21.23411" lon="55.49985">
        <ele>775.4404296875</ele>
        <time>2013-01-14T05:47:04Z</time>
      </trkpt>
      <trkpt lat="-21.23415" lon="55.4999">
        <ele>775.4404296875</ele>
        <time>2013-01-14T05:47:09Z</time>
      </trkpt>
      <trkpt lat="-21.23424" lon="55.49999">
        <ele>775.92114257812</ele>
        <time>2013-01-14T05:47:20Z</time>
      </trkpt>
      <trkpt lat="-21.23436" lon="55.50008">
        <ele>776.88256835938</ele>
        <time>2013-01-14T05:47:35Z</time>
      </trkpt>
      <trkpt lat="-21.23445" lon="55.50013">
        <ele>777.36328125</ele>
        <time>2013-01-14T05:47:44Z</time>
      </trkpt>
      <trkpt lat="-21.23454" lon="55.50018">
        <ele>778.32446289062</ele>
        <time>2013-01-14T05:47:55Z</time>
      </trkpt>
      <trkpt lat="-21.23458" lon="55.50022">
        <ele>779.76635742188</ele>
        <time>2013-01-14T05:47:59Z</time>
      </trkpt>
      <trkpt lat="-21.23461" lon="55.50026">
        <ele>781.68920898438</ele>
        <time>2013-01-14T05:48:02Z</time>
      </trkpt>
      <trkpt lat="-21.23475" lon="55.5005">
        <ele>783.13110351562</ele>
        <time>2013-01-14T05:48:22Z</time>
      </trkpt>
      <trkpt lat="-21.23497" lon="55.50064">
        <ele>783.61181640625</ele>
        <time>2013-01-14T05:48:43Z</time>
      </trkpt>
      <trkpt lat="-21.23502" lon="55.50066">
        <ele>784.09252929688</ele>
        <time>2013-01-14T05:48:48Z</time>
      </trkpt>
      <trkpt lat="-21.23518" lon="55.50074">
        <ele>784.09252929688</ele>
        <time>2013-01-14T05:49:02Z</time>
      </trkpt>
      <trkpt lat="-21.23531" lon="55.50086">
        <ele>784.09252929688</ele>
        <time>2013-01-14T05:49:16Z</time>
      </trkpt>
      <trkpt lat="-21.23533" lon="55.50088">
        <ele>783.61181640625</ele>
        <time>2013-01-14T05:49:18Z</time>
      </trkpt>
      <trkpt lat="-21.23542" lon="55.5009">
        <ele>784.5732421875</ele>
        <time>2013-01-14T05:49:23Z</time>
      </trkpt>
      <trkpt lat="-21.23546" lon="55.50092">
        <ele>784.09252929688</ele>
        <time>2013-01-14T05:49:27Z</time>
      </trkpt>
      <trkpt lat="-21.23553" lon="55.50094">
        <ele>784.5732421875</ele>
        <time>2013-01-14T05:49:31Z</time>
      </trkpt>
      <trkpt lat="-21.23562" lon="55.50102">
        <ele>784.5732421875</ele>
        <time>2013-01-14T05:49:40Z</time>
      </trkpt>
      <trkpt lat="-21.23563" lon="55.50101">
        <ele>784.5732421875</ele>
        <time>2013-01-14T05:49:42Z</time>
      </trkpt>
      <trkpt lat="-21.23568" lon="55.501">
        <ele>784.5732421875</ele>
        <time>2013-01-14T05:49:45Z</time>
      </trkpt>
      <trkpt lat="-21.23571" lon="55.50098">
        <ele>784.09252929688</ele>
        <time>2013-01-14T05:49:49Z</time>
      </trkpt>
      <trkpt lat="-21.23588" lon="55.50099">
        <ele>785.05395507812</ele>
        <time>2013-01-14T05:50:01Z</time>
      </trkpt>
      <trkpt lat="-21.23591" lon="55.50099">
        <ele>784.09252929688</ele>
        <time>2013-01-14T05:50:03Z</time>
      </trkpt>
      <trkpt lat="-21.23593" lon="55.50098">
        <ele>783.61181640625</ele>
        <time>2013-01-14T05:50:05Z</time>
      </trkpt>
      <trkpt lat="-21.23599" lon="55.50098">
        <ele>783.13110351562</ele>
        <time>2013-01-14T05:50:09Z</time>
      </trkpt>
      <trkpt lat="-21.23604" lon="55.50095">
        <ele>782.65063476562</ele>
        <time>2013-01-14T05:50:13Z</time>
      </trkpt>
      <trkpt lat="-21.23606" lon="55.50086">
        <ele>781.20874023438</ele>
        <time>2013-01-14T05:50:20Z</time>
      </trkpt>
      <trkpt lat="-21.23605" lon="55.50084">
        <ele>781.20874023438</ele>
        <time>2013-01-14T05:50:21Z</time>
      </trkpt>
      <trkpt lat="-21.23604" lon="55.50063">
        <ele>778.80517578125</ele>
        <time>2013-01-14T05:50:35Z</time>
      </trkpt>
      <trkpt lat="-21.23604" lon="55.50061">
        <ele>779.28564453125</ele>
        <time>2013-01-14T05:50:37Z</time>
      </trkpt>
      <trkpt lat="-21.23603" lon="55.50051">
        <ele>777.84375</ele>
        <time>2013-01-14T05:50:42Z</time>
      </trkpt>
      <trkpt lat="-21.23608" lon="55.50046">
        <ele>776.88256835938</ele>
        <time>2013-01-14T05:50:50Z</time>
      </trkpt>
      <trkpt lat="-21.23613" lon="55.50042">
        <ele>774.9599609375</ele>
        <time>2013-01-14T05:50:54Z</time>
      </trkpt>
      <trkpt lat="-21.23624" lon="55.50019">
        <ele>774.47924804688</ele>
        <time>2013-01-14T05:51:09Z</time>
      </trkpt>
      <trkpt lat="-21.23626" lon="55.50013">
        <ele>774.47924804688</ele>
        <time>2013-01-14T05:51:29Z</time>
      </trkpt>
      <trkpt lat="-21.23626" lon="55.50013">
        <ele>773.99853515625</ele>
        <time>2013-01-14T05:51:41Z</time>
      </trkpt>
    </trkseg>
  </trk>
</gpx>